RYR8LD LEMG-LFML
Flight info
| Callsign | RYR8LD |
|---|---|
| Flight time | 1h 26m |
| Altitude | 30000 |
| Route | RIXUR M445 PEPAS DCT ARPEX M445 SOPET DCT DIKUT DCT TORDU DCT LOTOS DCT EBROX DCT PEXOT DCT RODRA DCT BCN N870 DIBER UN870 SOSUR |
| Aircraft | B738/M-SDE2E3FGHIRWXY/LB1 |
Departure
| Time | 2026-05-05 18:37 |
|---|---|
| Airport | Málaga-Costa del Sol Airport (LEMG) |
Arrival
| Time | 2026-05-05 20:04 |
|---|---|
| Airport | Marseille Provence Airport (LFML) |
| Time | Latitude | Longitude | Altitude | Speed | Heading |
|---|---|---|---|---|---|
| 2026-05-05 18:18 | 36.67823 | -4.48800 | 41 ft | 0 kts | 208° |
| 2026-05-05 18:30 | 36.67837 | -4.48791 | 41 ft | 3 kts | 212° |
| 2026-05-05 18:30 | 36.67853 | -4.48778 | 41 ft | 3 kts | 209° |
| 2026-05-05 18:30 | 36.67869 | -4.48766 | 38 ft | 3 kts | 214° |
| 2026-05-05 18:30 | 36.67882 | -4.48757 | 39 ft | 2 kts | 196° |
| 2026-05-05 18:31 | 36.67891 | -4.48754 | 40 ft | 1 kts | 171° |
| 2026-05-05 18:31 | 36.67899 | -4.48757 | 41 ft | 1 kts | 148° |
| 2026-05-05 18:31 | 36.67906 | -4.48763 | 41 ft | 1 kts | 134° |
| 2026-05-05 18:31 | 36.67912 | -4.48771 | 39 ft | 1 kts | 126° |
| 2026-05-05 18:32 | 36.67913 | -4.48773 | 39 ft | 0 kts | 125° |
| 2026-05-05 18:34 | 36.67908 | -4.48762 | 41 ft | 9 kts | 117° |
| 2026-05-05 18:34 | 36.67875 | -4.48687 | 39 ft | 10 kts | 120° |
| 2026-05-05 18:34 | 36.67843 | -4.48607 | 40 ft | 11 kts | 117° |
| 2026-05-05 18:35 | 36.67836 | -4.48541 | 41 ft | 5 kts | 52° |
| 2026-05-05 18:35 | 36.67910 | -4.48488 | 37 ft | 16 kts | 28° |
| 2026-05-05 18:35 | 36.67905 | -4.48369 | 36 ft | 16 kts | 117° |
| 2026-05-05 18:35 | 36.67841 | -4.48216 | 36 ft | 22 kts | 116° |
| 2026-05-05 18:36 | 36.67769 | -4.48044 | 34 ft | 22 kts | 118° |
| 2026-05-05 18:36 | 36.67699 | -4.47876 | 32 ft | 22 kts | 117° |
| 2026-05-05 18:36 | 36.67710 | -4.47783 | 28 ft | 17 kts | 54° |
| 2026-05-05 18:36 | 36.67790 | -4.47690 | 33 ft | 5 kts | 359° |
| 2026-05-05 18:37 | 36.67820 | -4.47725 | 34 ft | 14 kts | 298° |
| 2026-05-05 18:37 | 36.67959 | -4.48055 | 35 ft | 83 kts | 297° |
| 2026-05-05 18:37 | 36.68349 | -4.48984 | 46 ft | 157 kts | 297° |
| 2026-05-05 18:37 | 36.68888 | -4.50304 | 748 ft | 170 kts | 300° |
| 2026-05-05 18:38 | 36.69597 | -4.51538 | 1741 ft | 175 kts | 313° |
| 2026-05-05 18:38 | 36.70472 | -4.52732 | 2418 ft | 197 kts | 314° |
| 2026-05-05 18:38 | 36.71465 | -4.54038 | 2761 ft | 218 kts | 314° |
| 2026-05-05 18:38 | 36.72531 | -4.55415 | 3342 ft | 226 kts | 314° |
| 2026-05-05 18:39 | 36.73705 | -4.56852 | 3622 ft | 252 kts | 322° |
| 2026-05-05 18:39 | 36.75340 | -4.57961 | 4094 ft | 271 kts | 339° |
| 2026-05-05 18:39 | 36.77156 | -4.58664 | 5008 ft | 276 kts | 343° |
| 2026-05-05 18:39 | 36.79017 | -4.59314 | 5726 ft | 286 kts | 343° |
| 2026-05-05 18:40 | 36.80949 | -4.60030 | 6484 ft | 291 kts | 341° |
| 2026-05-05 18:40 | 36.82829 | -4.60773 | 7652 ft | 283 kts | 341° |
| 2026-05-05 18:40 | 36.84777 | -4.61457 | 8392 ft | 291 kts | 343° |
| 2026-05-05 18:40 | 36.86751 | -4.61984 | 9158 ft | 298 kts | 346° |
| 2026-05-05 18:41 | 36.88854 | -4.62056 | 9916 ft | 309 kts | 6° |
| 2026-05-05 18:41 | 36.90943 | -4.61173 | 10398 ft | 330 kts | 26° |
| 2026-05-05 18:41 | 36.92804 | -4.59322 | 10702 ft | 353 kts | 46° |
| 2026-05-05 18:41 | 36.94314 | -4.56806 | 11198 ft | 365 kts | 54° |
| 2026-05-05 18:42 | 36.95759 | -4.54146 | 11732 ft | 375 kts | 54° |
| 2026-05-05 18:42 | 36.97218 | -4.51406 | 12322 ft | 384 kts | 55° |
| 2026-05-05 18:42 | 36.98676 | -4.48553 | 12818 ft | 394 kts | 56° |
| 2026-05-05 18:42 | 37.00164 | -4.45646 | 13420 ft | 399 kts | 55° |
| 2026-05-05 18:43 | 37.01711 | -4.42742 | 14066 ft | 402 kts | 54° |
| 2026-05-05 18:43 | 37.03269 | -4.39821 | 14688 ft | 406 kts | 54° |
| 2026-05-05 18:43 | 37.04834 | -4.36851 | 15272 ft | 410 kts | 55° |
| 2026-05-05 18:43 | 37.06402 | -4.33851 | 15869 ft | 414 kts | 55° |
| 2026-05-05 18:44 | 37.07761 | -4.30650 | 16424 ft | 421 kts | 71° |
| 2026-05-05 18:44 | 37.08465 | -4.27070 | 17050 ft | 424 kts | 78° |
| 2026-05-05 18:44 | 37.08922 | -4.23409 | 17599 ft | 429 kts | 86° |
| 2026-05-05 18:44 | 37.08969 | -4.19663 | 18169 ft | 433 kts | 91° |
| 2026-05-05 18:45 | 37.08909 | -4.15925 | 19047 ft | 423 kts | 92° |
| 2026-05-05 18:45 | 37.08838 | -4.12292 | 20025 ft | 414 kts | 92° |
| 2026-05-05 18:45 | 37.08777 | -4.08684 | 20595 ft | 417 kts | 91° |
| 2026-05-05 18:45 | 37.08726 | -4.05032 | 21071 ft | 421 kts | 91° |
| 2026-05-05 18:46 | 37.08682 | -4.01342 | 21517 ft | 427 kts | 91° |
| 2026-05-05 18:46 | 37.08642 | -3.97607 | 22013 ft | 431 kts | 91° |
| 2026-05-05 18:46 | 37.08604 | -3.93848 | 22540 ft | 433 kts | 91° |
| 2026-05-05 18:46 | 37.08567 | -3.90063 | 23052 ft | 437 kts | 91° |
| 2026-05-05 18:47 | 37.08528 | -3.86241 | 23506 ft | 441 kts | 91° |
| 2026-05-05 18:47 | 37.08486 | -3.82383 | 23896 ft | 445 kts | 91° |
| 2026-05-05 18:47 | 37.08444 | -3.78499 | 24271 ft | 448 kts | 91° |
| 2026-05-05 18:47 | 37.08400 | -3.74580 | 24663 ft | 451 kts | 91° |
| 2026-05-05 18:48 | 37.08353 | -3.70646 | 25035 ft | 454 kts | 91° |
| 2026-05-05 18:48 | 37.08505 | -3.66684 | 25360 ft | 459 kts | 78° |
| 2026-05-05 18:48 | 37.09655 | -3.62919 | 25704 ft | 458 kts | 55° |
| 2026-05-05 18:48 | 37.11707 | -3.59995 | 26075 ft | 452 kts | 34° |
| 2026-05-05 18:49 | 37.14239 | -3.57686 | 26462 ft | 454 kts | 35° |
| 2026-05-05 18:49 | 37.16582 | -3.54968 | 26756 ft | 462 kts | 43° |
| 2026-05-05 18:49 | 37.18786 | -3.52001 | 27059 ft | 467 kts | 45° |
| 2026-05-05 18:49 | 37.20963 | -3.48971 | 27431 ft | 469 kts | 44° |
| 2026-05-05 18:50 | 37.23173 | -3.45947 | 27797 ft | 471 kts | 44° |
| 2026-05-05 18:50 | 37.25433 | -3.42949 | 28107 ft | 474 kts | 43° |
| 2026-05-05 18:50 | 37.27736 | -3.39975 | 28406 ft | 477 kts | 42° |
| 2026-05-05 18:50 | 37.30078 | -3.37004 | 28705 ft | 479 kts | 41° |
| 2026-05-05 18:51 | 37.32444 | -3.34029 | 29017 ft | 482 kts | 41° |
| 2026-05-05 18:51 | 37.34825 | -3.31042 | 29307 ft | 485 kts | 41° |
| 2026-05-05 18:51 | 37.37216 | -3.28041 | 29602 ft | 487 kts | 41° |
| 2026-05-05 18:51 | 37.39620 | -3.25018 | 29899 ft | 489 kts | 41° |
| 2026-05-05 18:52 | 37.44477 | -3.18891 | 29981 ft | 501 kts | 41° |
| 2026-05-05 18:52 | 37.48646 | -3.13618 | 29981 ft | 513 kts | 41° |
| 2026-05-05 18:53 | 37.53708 | -3.07198 | 29978 ft | 522 kts | 42° |
| 2026-05-05 18:53 | 37.58803 | -3.00715 | 29954 ft | 520 kts | 42° |
| 2026-05-05 18:54 | 37.63887 | -2.94239 | 29958 ft | 519 kts | 42° |
| 2026-05-05 18:54 | 37.68967 | -2.87758 | 29958 ft | 519 kts | 42° |
| 2026-05-05 18:55 | 37.74047 | -2.81264 | 29962 ft | 520 kts | 42° |
| 2026-05-05 18:55 | 37.79103 | -2.74700 | 29970 ft | 521 kts | 43° |
| 2026-05-05 18:56 | 37.84101 | -2.68023 | 29957 ft | 523 kts | 43° |
| 2026-05-05 18:56 | 37.89101 | -2.61340 | 29969 ft | 523 kts | 43° |
| 2026-05-05 18:57 | 37.94123 | -2.54646 | 29972 ft | 525 kts | 43° |
| 2026-05-05 18:57 | 37.99152 | -2.47932 | 29964 ft | 525 kts | 43° |
| 2026-05-05 18:58 | 38.04215 | -2.41168 | 29959 ft | 526 kts | 43° |
| 2026-05-05 18:58 | 38.09247 | -2.34430 | 29969 ft | 526 kts | 43° |
| 2026-05-05 18:59 | 38.14284 | -2.27669 | 29960 ft | 527 kts | 43° |
| 2026-05-05 18:59 | 38.19326 | -2.20890 | 29954 ft | 528 kts | 42° |
| 2026-05-05 19:00 | 38.24163 | -2.13820 | 29955 ft | 532 kts | 48° |
| 2026-05-05 19:00 | 38.28649 | -2.06310 | 29951 ft | 533 kts | 49° |
| 2026-05-05 19:01 | 38.33173 | -1.98830 | 29920 ft | 533 kts | 48° |
| 2026-05-05 19:01 | 38.37754 | -1.91400 | 29922 ft | 534 kts | 48° |
| 2026-05-05 19:02 | 38.42346 | -1.83950 | 29952 ft | 535 kts | 48° |
| 2026-05-05 19:02 | 38.46940 | -1.76474 | 29924 ft | 536 kts | 48° |
| 2026-05-05 19:03 | 38.51535 | -1.68974 | 29929 ft | 536 kts | 48° |
| 2026-05-05 19:03 | 38.56130 | -1.61458 | 29912 ft | 537 kts | 48° |
| 2026-05-05 19:04 | 38.60727 | -1.53919 | 29928 ft | 537 kts | 48° |
| 2026-05-05 19:04 | 38.65316 | -1.46377 | 29929 ft | 538 kts | 48° |
| 2026-05-05 19:05 | 38.69913 | -1.38804 | 29928 ft | 539 kts | 49° |
| 2026-05-05 19:05 | 38.74513 | -1.31210 | 29922 ft | 540 kts | 49° |
| 2026-05-05 19:06 | 38.79112 | -1.23597 | 29924 ft | 540 kts | 49° |
| 2026-05-05 19:06 | 38.83709 | -1.15970 | 29922 ft | 540 kts | 49° |
| 2026-05-05 19:07 | 38.88302 | -1.08329 | 29916 ft | 541 kts | 49° |
| 2026-05-05 19:07 | 38.92891 | -1.00677 | 29916 ft | 542 kts | 49° |
| 2026-05-05 19:08 | 38.97463 | -0.93035 | 29899 ft | 542 kts | 49° |
| 2026-05-05 19:08 | 39.02062 | -0.85330 | 29907 ft | 542 kts | 49° |
| 2026-05-05 19:09 | 39.06700 | -0.77682 | 29892 ft | 541 kts | 45° |
| 2026-05-05 19:09 | 39.09353 | -0.74294 | 29884 ft | 534 kts | 34° |
| 2026-05-05 19:09 | 39.12249 | -0.71309 | 29892 ft | 532 kts | 33° |
| 2026-05-05 19:10 | 39.18061 | -0.65333 | 29900 ft | 534 kts | 34° |
| 2026-05-05 19:10 | 39.23810 | -0.59217 | 29893 ft | 535 kts | 35° |
| 2026-05-05 19:11 | 39.29521 | -0.53106 | 29888 ft | 535 kts | 34° |
| 2026-05-05 19:11 | 39.35428 | -0.47286 | 29889 ft | 533 kts | 31° |
| 2026-05-05 19:12 | 39.41413 | -0.41618 | 29886 ft | 533 kts | 31° |
| 2026-05-05 19:12 | 39.47375 | -0.35883 | 29889 ft | 533 kts | 31° |
| 2026-05-05 19:13 | 39.53307 | -0.30094 | 29887 ft | 533 kts | 32° |
| 2026-05-05 19:13 | 39.59219 | -0.24298 | 29885 ft | 532 kts | 32° |
| 2026-05-05 19:14 | 39.65123 | -0.18505 | 29886 ft | 532 kts | 32° |
| 2026-05-05 19:14 | 39.71018 | -0.12712 | 29898 ft | 531 kts | 32° |
| 2026-05-05 19:15 | 39.76898 | -0.06921 | 29906 ft | 530 kts | 32° |
| 2026-05-05 19:15 | 39.82772 | -0.01106 | 29910 ft | 531 kts | 33° |
| 2026-05-05 19:16 | 39.88064 | 0.05688 | 29929 ft | 537 kts | 44° |
| 2026-05-05 19:16 | 39.93063 | 0.12922 | 29917 ft | 537 kts | 44° |
| 2026-05-05 19:17 | 39.98147 | 0.20045 | 29934 ft | 536 kts | 43° |
| 2026-05-05 19:17 | 40.03250 | 0.27154 | 29931 ft | 537 kts | 43° |
| 2026-05-05 19:18 | 40.08354 | 0.34283 | 29941 ft | 538 kts | 43° |
| 2026-05-05 19:18 | 40.13459 | 0.41436 | 29937 ft | 539 kts | 43° |
| 2026-05-05 19:19 | 40.18571 | 0.48614 | 29934 ft | 539 kts | 43° |
| 2026-05-05 19:19 | 40.23682 | 0.55809 | 29938 ft | 541 kts | 43° |
| 2026-05-05 19:20 | 40.28807 | 0.63040 | 29939 ft | 542 kts | 43° |
| 2026-05-05 19:20 | 40.33936 | 0.70297 | 29943 ft | 543 kts | 44° |
| 2026-05-05 19:21 | 40.39069 | 0.77580 | 29936 ft | 545 kts | 44° |
| 2026-05-05 19:21 | 40.44214 | 0.84897 | 29932 ft | 546 kts | 44° |
| 2026-05-05 19:22 | 40.49363 | 0.92239 | 29929 ft | 547 kts | 44° |
| 2026-05-05 19:22 | 40.54522 | 0.99611 | 29930 ft | 548 kts | 44° |
| 2026-05-05 19:23 | 40.59686 | 1.07020 | 29926 ft | 549 kts | 44° |
| 2026-05-05 19:23 | 40.64846 | 1.14454 | 29926 ft | 550 kts | 44° |
| 2026-05-05 19:24 | 40.70008 | 1.21907 | 29926 ft | 551 kts | 44° |
| 2026-05-05 19:24 | 40.75178 | 1.29375 | 29924 ft | 552 kts | 44° |
| 2026-05-05 19:25 | 40.80359 | 1.36867 | 29922 ft | 553 kts | 44° |
| 2026-05-05 19:25 | 40.85549 | 1.44395 | 29917 ft | 555 kts | 44° |
| 2026-05-05 19:26 | 40.90743 | 1.51958 | 29918 ft | 556 kts | 45° |
| 2026-05-05 19:26 | 40.95937 | 1.59553 | 29913 ft | 557 kts | 45° |
| 2026-05-05 19:27 | 41.01136 | 1.67174 | 29913 ft | 558 kts | 45° |
| 2026-05-05 19:27 | 41.05489 | 1.73566 | 29911 ft | 558 kts | 45° |
| 2026-05-05 19:28 | 41.10695 | 1.81217 | 29901 ft | 559 kts | 45° |
| 2026-05-05 19:28 | 41.15900 | 1.88883 | 29899 ft | 559 kts | 45° |
| 2026-05-05 19:29 | 41.21100 | 1.96564 | 29894 ft | 559 kts | 45° |
| 2026-05-05 19:29 | 41.26302 | 2.04267 | 29887 ft | 560 kts | 45° |
| 2026-05-05 19:30 | 41.31214 | 2.12314 | 29881 ft | 563 kts | 57° |
| 2026-05-05 19:30 | 41.34639 | 2.21669 | 29895 ft | 563 kts | 67° |
| 2026-05-05 19:31 | 41.37818 | 2.31207 | 29879 ft | 564 kts | 66° |
| 2026-05-05 19:31 | 41.41072 | 2.40700 | 29905 ft | 563 kts | 66° |
| 2026-05-05 19:32 | 41.44357 | 2.50180 | 29904 ft | 563 kts | 66° |
| 2026-05-05 19:32 | 41.47631 | 2.59661 | 29904 ft | 562 kts | 66° |
| 2026-05-05 19:33 | 41.50889 | 2.69155 | 29898 ft | 562 kts | 66° |
| 2026-05-05 19:33 | 41.54128 | 2.78636 | 29896 ft | 561 kts | 67° |
| 2026-05-05 19:34 | 41.57357 | 2.88116 | 29893 ft | 561 kts | 67° |
| 2026-05-05 19:35 | 41.62189 | 3.02364 | 29889 ft | 561 kts | 67° |
| 2026-05-05 19:35 | 41.65400 | 3.11873 | 29888 ft | 560 kts | 67° |
| 2026-05-05 19:36 | 41.68597 | 3.21371 | 29888 ft | 559 kts | 68° |
| 2026-05-05 19:36 | 41.71764 | 3.30870 | 29885 ft | 558 kts | 68° |
| 2026-05-05 19:37 | 41.74914 | 3.40348 | 29887 ft | 557 kts | 68° |
| 2026-05-05 19:37 | 41.78060 | 3.49814 | 29889 ft | 556 kts | 68° |
| 2026-05-05 19:38 | 41.81196 | 3.59279 | 29891 ft | 555 kts | 68° |
| 2026-05-05 19:38 | 41.84315 | 3.68732 | 29889 ft | 554 kts | 68° |
| 2026-05-05 19:39 | 41.87421 | 3.78181 | 29887 ft | 553 kts | 68° |
| 2026-05-05 19:39 | 41.90533 | 3.87680 | 29893 ft | 552 kts | 68° |
| 2026-05-05 19:40 | 41.93596 | 3.97056 | 29891 ft | 552 kts | 68° |
| 2026-05-05 19:40 | 41.96680 | 4.06507 | 29892 ft | 551 kts | 68° |
| 2026-05-05 19:41 | 41.99758 | 4.15973 | 29891 ft | 550 kts | 68° |
| 2026-05-05 19:41 | 42.02813 | 4.25406 | 29891 ft | 549 kts | 68° |
| 2026-05-05 19:42 | 42.05814 | 4.34690 | 29868 ft | 524 kts | 68° |
| 2026-05-05 19:42 | 42.07443 | 4.38991 | 29871 ft | 508 kts | 59° |
| 2026-05-05 19:42 | 42.09416 | 4.42784 | 29877 ft | 493 kts | 51° |
| 2026-05-05 19:42 | 42.11686 | 4.46151 | 29862 ft | 477 kts | 40° |
| 2026-05-05 19:43 | 42.14232 | 4.48866 | 29882 ft | 458 kts | 30° |
| 2026-05-05 19:43 | 42.16934 | 4.51004 | 29877 ft | 441 kts | 21° |
| 2026-05-05 19:43 | 42.19702 | 4.52559 | 29819 ft | 422 kts | 9° |
| 2026-05-05 19:43 | 42.22490 | 4.53632 | 29648 ft | 412 kts | 8° |
| 2026-05-05 19:44 | 42.25246 | 4.54682 | 29290 ft | 410 kts | 8° |
| 2026-05-05 19:44 | 42.27992 | 4.55736 | 28762 ft | 412 kts | 9° |
| 2026-05-05 19:44 | 42.30791 | 4.56815 | 27801 ft | 426 kts | 9° |
| 2026-05-05 19:44 | 42.33656 | 4.57932 | 27418 ft | 427 kts | 10° |
| 2026-05-05 19:45 | 42.36561 | 4.59073 | 26940 ft | 441 kts | 11° |
| 2026-05-05 19:45 | 42.39528 | 4.60245 | 26440 ft | 446 kts | 11° |
| 2026-05-05 19:45 | 42.42511 | 4.61432 | 25938 ft | 446 kts | 11° |
| 2026-05-05 19:45 | 42.45490 | 4.62622 | 25448 ft | 445 kts | 12° |
| 2026-05-05 19:46 | 42.48456 | 4.63809 | 24959 ft | 444 kts | 12° |
| 2026-05-05 19:46 | 42.51409 | 4.64989 | 24483 ft | 442 kts | 12° |
| 2026-05-05 19:46 | 42.54352 | 4.66166 | 24016 ft | 440 kts | 13° |
| 2026-05-05 19:46 | 42.57248 | 4.67323 | 23564 ft | 437 kts | 13° |
| 2026-05-05 19:47 | 42.60170 | 4.68491 | 23034 ft | 435 kts | 13° |
| 2026-05-05 19:47 | 42.63064 | 4.69649 | 22501 ft | 433 kts | 14° |
| 2026-05-05 19:47 | 42.65950 | 4.70804 | 21966 ft | 430 kts | 14° |
| 2026-05-05 19:47 | 42.68812 | 4.71950 | 21446 ft | 427 kts | 14° |
| 2026-05-05 19:48 | 42.71694 | 4.72828 | 20924 ft | 423 kts | 5° |
| 2026-05-05 19:48 | 42.74603 | 4.73324 | 20433 ft | 419 kts | 4° |
| 2026-05-05 19:48 | 42.77494 | 4.73776 | 19935 ft | 417 kts | 4° |
| 2026-05-05 19:48 | 42.80378 | 4.74232 | 19447 ft | 414 kts | 4° |
| 2026-05-05 19:49 | 42.83234 | 4.74699 | 18964 ft | 412 kts | 4° |
| 2026-05-05 19:49 | 42.85133 | 4.75019 | 18653 ft | 411 kts | 4° |
| 2026-05-05 19:49 | 42.88895 | 4.75668 | 18006 ft | 408 kts | 5° |
| 2026-05-05 19:49 | 42.91716 | 4.76163 | 17462 ft | 406 kts | 5° |
| 2026-05-05 19:50 | 42.94475 | 4.76651 | 16950 ft | 404 kts | 5° |
| 2026-05-05 19:50 | 42.97253 | 4.77144 | 16458 ft | 401 kts | 5° |
| 2026-05-05 19:50 | 43.00009 | 4.77636 | 16130 ft | 394 kts | 5° |
| 2026-05-05 19:50 | 43.02714 | 4.78118 | 15788 ft | 387 kts | 5° |
| 2026-05-05 19:51 | 43.05364 | 4.78591 | 15511 ft | 380 kts | 5° |
| 2026-05-05 19:51 | 43.07958 | 4.79054 | 15240 ft | 373 kts | 5° |
| 2026-05-05 19:51 | 43.10523 | 4.79511 | 14865 ft | 370 kts | 5° |
| 2026-05-05 19:51 | 43.13052 | 4.79961 | 14330 ft | 372 kts | 5° |
| 2026-05-05 19:52 | 43.15627 | 4.80419 | 13790 ft | 374 kts | 6° |
| 2026-05-05 19:52 | 43.18210 | 4.80880 | 13195 ft | 375 kts | 6° |
| 2026-05-05 19:52 | 43.20803 | 4.81343 | 12610 ft | 376 kts | 6° |
| 2026-05-05 19:52 | 43.23362 | 4.81802 | 12083 ft | 365 kts | 6° |
| 2026-05-05 19:53 | 43.25847 | 4.82248 | 11567 ft | 356 kts | 6° |
| 2026-05-05 19:53 | 43.28276 | 4.82685 | 11058 ft | 347 kts | 6° |
| 2026-05-05 19:53 | 43.30649 | 4.83111 | 10529 ft | 341 kts | 6° |
| 2026-05-05 19:53 | 43.32984 | 4.83530 | 9965 ft | 336 kts | 7° |
| 2026-05-05 19:54 | 43.35297 | 4.83945 | 9356 ft | 331 kts | 7° |
| 2026-05-05 19:54 | 43.37524 | 4.84345 | 8663 ft | 315 kts | 7° |
| 2026-05-05 19:54 | 43.39645 | 4.84727 | 8169 ft | 306 kts | 7° |
| 2026-05-05 19:54 | 43.41735 | 4.85104 | 7837 ft | 297 kts | 7° |
| 2026-05-05 19:55 | 43.43743 | 4.85465 | 7555 ft | 287 kts | 7° |
| 2026-05-05 19:55 | 43.45721 | 4.85822 | 7154 ft | 284 kts | 8° |
| 2026-05-05 19:55 | 43.47667 | 4.86173 | 6791 ft | 281 kts | 8° |
| 2026-05-05 19:55 | 43.49620 | 4.86526 | 6466 ft | 282 kts | 8° |
| 2026-05-05 19:56 | 43.51548 | 4.86874 | 6123 ft | 283 kts | 8° |
| 2026-05-05 19:56 | 43.53523 | 4.87232 | 5756 ft | 281 kts | 8° |
| 2026-05-05 19:56 | 43.55423 | 4.87575 | 5403 ft | 275 kts | 8° |
| 2026-05-05 19:56 | 43.57309 | 4.87917 | 5041 ft | 269 kts | 8° |
| 2026-05-05 19:57 | 43.59116 | 4.88248 | 4668 ft | 253 kts | 9° |
| 2026-05-05 19:57 | 43.60206 | 4.88681 | 4471 ft | 239 kts | 29° |
| 2026-05-05 19:57 | 43.61706 | 4.90711 | 4228 ft | 219 kts | 57° |
| 2026-05-05 19:57 | 43.62434 | 4.92487 | 4044 ft | 206 kts | 73° |
| 2026-05-05 19:58 | 43.62422 | 4.94329 | 4002 ft | 188 kts | 116° |
| 2026-05-05 19:58 | 43.61695 | 4.95796 | 4013 ft | 189 kts | 130° |
| 2026-05-05 19:58 | 43.60823 | 4.97148 | 3997 ft | 188 kts | 136° |
| 2026-05-05 19:58 | 43.59909 | 4.98423 | 3987 ft | 187 kts | 136° |
| 2026-05-05 19:59 | 43.58997 | 4.99710 | 3984 ft | 187 kts | 135° |
| 2026-05-05 19:59 | 43.58067 | 5.01027 | 3753 ft | 194 kts | 135° |
| 2026-05-05 19:59 | 43.57130 | 5.02359 | 3499 ft | 192 kts | 135° |
| 2026-05-05 19:59 | 43.56206 | 5.03671 | 3242 ft | 189 kts | 135° |
| 2026-05-05 20:00 | 43.55304 | 5.04953 | 2993 ft | 186 kts | 135° |
| 2026-05-05 20:00 | 43.54415 | 5.06217 | 2764 ft | 181 kts | 135° |
| 2026-05-05 20:00 | 43.53549 | 5.07447 | 2509 ft | 175 kts | 135° |
| 2026-05-05 20:00 | 43.52731 | 5.08610 | 2336 ft | 160 kts | 135° |
| 2026-05-05 20:01 | 43.51980 | 5.09679 | 2082 ft | 151 kts | 135° |
| 2026-05-05 20:01 | 43.51248 | 5.10719 | 1887 ft | 152 kts | 135° |
| 2026-05-05 20:01 | 43.50511 | 5.11766 | 1695 ft | 152 kts | 135° |
| 2026-05-05 20:01 | 43.49774 | 5.12814 | 1485 ft | 152 kts | 135° |
| 2026-05-05 20:02 | 43.49051 | 5.13842 | 1290 ft | 151 kts | 135° |
| 2026-05-05 20:02 | 43.48323 | 5.14879 | 1089 ft | 149 kts | 134° |
| 2026-05-05 20:02 | 43.47605 | 5.15899 | 891 ft | 147 kts | 135° |
| 2026-05-05 20:02 | 43.47128 | 5.16578 | 761 ft | 145 kts | 135° |
| 2026-05-05 20:03 | 43.46434 | 5.17560 | 515 ft | 146 kts | 136° |
| 2026-05-05 20:03 | 43.45723 | 5.18571 | 252 ft | 143 kts | 134° |
| 2026-05-05 20:03 | 43.45044 | 5.19543 | 106 ft | 143 kts | 134° |
| 2026-05-05 20:03 | 43.44364 | 5.20517 | 37 ft | 132 kts | 134° |
| 2026-05-05 20:04 | 43.43813 | 5.21305 | 37 ft | 92 kts | 133° |
| 2026-05-05 20:04 | 43.43451 | 5.21817 | 34 ft | 48 kts | 134° |
| 2026-05-05 20:04 | 43.43332 | 5.22104 | 36 ft | 32 kts | 90° |
| 2026-05-05 20:04 | 43.43335 | 5.22186 | 36 ft | 1 kts | 87° |
| 2026-05-05 20:05 | 43.43335 | 5.22195 | 36 ft | 1 kts | 84° |
| 2026-05-05 20:05 | 43.43336 | 5.22204 | 36 ft | 1 kts | 80° |
| 2026-05-05 20:05 | 43.43337 | 5.22212 | 36 ft | 1 kts | 79° |
| 2026-05-05 20:05 | 43.43343 | 5.22236 | 35 ft | 9 kts | 64° |
| 2026-05-05 20:06 | 43.43410 | 5.22283 | 36 ft | 15 kts | 354° |
| 2026-05-05 20:06 | 43.43509 | 5.22215 | 36 ft | 17 kts | 332° |
| 2026-05-05 20:06 | 43.43613 | 5.22132 | 36 ft | 18 kts | 330° |
| 2026-05-05 20:06 | 43.43723 | 5.22045 | 36 ft | 19 kts | 326° |
| 2026-05-05 20:07 | 43.43825 | 5.21926 | 36 ft | 20 kts | 315° |
| 2026-05-05 20:07 | 43.43925 | 5.21782 | 36 ft | 21 kts | 314° |
| 2026-05-05 20:07 | 43.43967 | 5.21621 | 34 ft | 20 kts | 233° |
| 2026-05-05 20:07 | 43.43941 | 5.21463 | 36 ft | 19 kts | 310° |
| 2026-05-05 20:08 | 43.44041 | 5.21348 | 36 ft | 19 kts | 355° |
| 2026-05-05 20:08 | 43.44144 | 5.21448 | 36 ft | 18 kts | 43° |
| 2026-05-05 20:08 | 43.44234 | 5.21566 | 36 ft | 18 kts | 44° |
| 2026-05-05 20:08 | 43.44304 | 5.21661 | 36 ft | 3 kts | 58° |
| 2026-05-05 20:09 | 43.44299 | 5.21685 | 36 ft | 7 kts | 119° |
| 2026-05-05 20:09 | 43.44292 | 5.21697 | 36 ft | 1 kts | 130° |
| 2026-05-05 20:09 | 43.44286 | 5.21707 | 36 ft | 2 kts | 125° |
| 2026-05-05 20:09 | 43.44272 | 5.21707 | 36 ft | 3 kts | 205° |
| 2026-05-05 20:10 | 43.44268 | 5.21702 | 36 ft | 1 kts | 227° |
| 2026-05-05 20:10 | 43.44266 | 5.21697 | 36 ft | 0 kts | 238° |
| 2026-05-05 20:10 | 43.44265 | 5.21693 | 36 ft | 0 kts | 238° |
| 2026-05-05 20:11 | 43.44264 | 5.21691 | 36 ft | 0 kts | 238° |
| 2026-05-05 20:11 | 43.44265 | 5.21692 | 36 ft | 0 kts | 258° |